Time;durP1;ratioP1;P1;durP2;ratioP2;P2;SDS_P1;SDS_P2;PMS_P1;PMS_P2;Temp;Humidity;BMP_temperature;BMP_pressure;BME280_temperature;BME280_humidity;BME280_pressure;Samples;Min_cycle;Max_cycle;Signal;HPM_P1;HPM_P2
2021/03/10 00:01:15;;;;;;;24.97;13.63;;;3.90;99.90;;;4.78;100.00;98304.84;5007499;28;20474;-80
2021/03/10 00:03:43;;;;;;;22.30;12.83;;;3.90;99.90;;;4.78;100.00;98296.25;5006081;28;20465;-80
2021/03/10 00:06:11;;;;;;;24.80;14.40;;;3.90;99.90;;;4.78;100.00;98307.44;5009898;28;20956;-80
2021/03/10 00:08:39;;;;;;;20.73;12.43;;;3.90;99.90;;;4.79;100.00;98316.81;5008814;28;20466;-80
2021/03/10 00:11:07;;;;;;;23.70;14.70;;;3.90;99.90;;;4.74;100.00;98306.09;5003423;28;20463;-80
2021/03/10 00:13:34;;;;;;;24.40;13.70;;;3.90;99.90;;;4.74;100.00;98319.03;5005803;28;20467;-80
2021/03/10 00:16:02;;;;;;;22.37;14.07;;;3.80;99.90;;;4.76;100.00;98316.28;5003232;28;20471;-80
2021/03/10 00:18:30;;;;;;;23.30;13.10;;;3.80;99.90;;;4.79;100.00;98310.84;5009677;28;20466;-80
2021/03/10 00:20:58;;;;;;;21.40;14.00;;;3.90;99.90;;;4.78;100.00;98306.63;5008892;28;20485;-80
2021/03/10 00:23:25;;;;;;;24.40;14.50;;;4.00;99.90;;;4.73;100.00;98308.81;5007641;28;20467;-80
2021/03/10 00:25:53;;;;;;;26.53;15.30;;;3.90;99.90;;;4.68;100.00;98311.03;5007719;28;20494;-80
2021/03/10 00:28:20;;;;;;;23.07;13.57;;;3.90;99.90;;;4.68;100.00;98309.25;5007499;28;20582;-80
2021/03/10 00:30:48;;;;;;;27.20;14.07;;;3.80;99.90;;;4.63;100.00;98315.81;5007395;28;20458;-80
2021/03/10 00:33:16;;;;;;;27.90;13.73;;;3.80;99.90;;;4.58;100.00;98326.63;5007180;28;20470;-80
2021/03/10 00:35:43;;;;;;;24.33;13.40;;;3.70;99.90;;;4.55;100.00;98326.88;5008530;28;20458;-80
2021/03/10 00:38:12;;;;;;;20.70;13.47;;;3.70;99.90;;;4.54;100.00;98335.63;5007196;28;20463;-80
2021/03/10 00:40:39;;;;;;;23.27;13.37;;;3.60;99.90;;;4.52;100.00;98335.75;5005802;28;20524;-80
2021/03/10 00:43:07;;;;;;;29.13;13.37;;;3.60;99.90;;;4.51;100.00;98336.69;5009598;28;20451;-80
2021/03/10 00:45:34;;;;;;;27.93;13.73;;;3.50;99.90;;;4.47;100.00;98327.63;5007591;28;20495;-80
2021/03/10 00:48:02;;;;;;;26.47;14.00;;;3.60;99.90;;;4.37;100.00;98313.06;5006062;28;20471;-80
2021/03/10 00:50:34;;;;;;;21.13;12.40;;;3.50;99.90;;;4.30;100.00;98328.34;5008036;28;20455;-80
2021/03/10 00:53:01;;;;;;;22.17;13.77;;;3.40;99.90;;;4.31;100.00;98314.44;5005630;28;20455;-80
2021/03/10 00:55:30;;;;;;;23.20;13.07;;;3.40;99.90;;;4.29;100.00;98311.19;5007797;28;20471;-80
2021/03/10 00:57:57;;;;;;;20.43;12.40;;;3.40;99.90;;;4.22;100.00;98323.03;5008984;28;20487;-80
2021/03/10 01:00:25;;;;;;;22.07;12.80;;;3.30;99.90;;;4.22;100.00;98314.47;5006024;28;20951;-80
2021/03/10 01:02:53;;;;;;;29.87;15.17;;;3.50;99.90;;;4.14;100.00;98309.16;5006481;28;20486;-80
2021/03/10 01:05:21;;;;;;;27.47;13.67;;;3.20;99.90;;;4.10;100.00;98308.63;5007440;28;20498;-80
2021/03/10 01:07:49;;;;;;;28.80;14.37;;;3.20;99.90;;;4.08;100.00;98313.13;5005373;28;20889;-79
2021/03/10 01:10:17;;;;;;;20.33;12.77;;;3.20;99.90;;;4.00;100.00;98320.78;5002910;28;20478;-80
2021/03/10 01:12:46;;;;;;;22.93;12.80;;;3.00;99.90;;;3.96;100.00;98314.22;5002110;28;20951;-80
2021/03/10 01:15:18;;;;;;;25.97;14.77;;;3.00;99.90;;;3.90;100.00;98313.03;5007274;28;20462;-80
2021/03/10 01:17:46;;;;;;;29.53;14.00;;;3.00;99.90;;;3.93;100.00;98309.34;5006177;28;20471;-80
2021/03/10 01:20:18;;;;;;;23.60;12.40;;;3.10;99.90;;;3.95;100.00;98307.44;5006567;28;20467;-80
2021/03/10 01:22:46;;;;;;;19.23;12.00;;;3.00;99.90;;;3.95;100.00;98307.44;5007890;28;20459;-80
2021/03/10 01:25:15;;;;;;;22.90;12.93;;;3.10;99.90;;;3.94;100.00;98310.97;5007529;28;20917;-80
2021/03/10 01:27:43;;;;;;;23.23;12.50;;;3.00;99.90;;;3.97;100.00;98315.88;5008599;28;20451;-79
2021/03/10 01:30:16;;;;;;;23.23;13.50;;;3.10;99.90;;;3.96;100.00;98303.88;5006541;28;20982;-80
2021/03/10 01:32:44;;;;;;;24.00;12.50;;;3.10;99.90;;;3.82;100.00;98302.56;5007450;28;20463;-80
2021/03/10 01:35:13;;;;;;;25.20;12.90;;;2.90;99.90;;;3.76;100.00;98305.69;5004512;28;20463;-80
2021/03/10 01:37:42;;;;;;;22.23;12.83;;;2.80;99.90;;;3.83;100.00;98305.97;5005737;28;21402;-80
2021/03/10 01:40:14;;;;;;;26.07;14.90;;;2.90;99.90;;;3.81;100.00;98306.13;5005917;28;20475;-80
2021/03/10 01:42:42;;;;;;;25.47;14.17;;;2.90;99.90;;;3.81;100.00;98310.47;5006886;28;20463;-80
2021/03/10 01:45:12;;;;;;;26.03;14.23;;;2.90;99.90;;;3.86;100.00;98309.09;5002518;28;20857;-80
2021/03/10 01:47:43;;;;;;;22.33;12.10;;;3.00;99.90;;;3.91;100.00;98309.50;5004964;28;20945;-80
2021/03/10 01:50:12;;;;;;;22.63;13.27;;;3.00;99.90;;;3.95;100.00;98307.44;5008097;28;20497;-80
2021/03/10 01:52:40;;;;;;;24.13;11.63;;;3.10;99.90;;;3.93;100.00;98309.34;5006637;28;20470;-80
2021/03/10 01:55:09;;;;;;;22.93;13.60;;;3.00;99.90;;;3.97;100.00;98316.69;5006455;28;20463;-80
2021/03/10 01:57:36;;;;;;;21.83;13.20;;;3.10;99.90;;;4.00;100.00;98318.19;5005395;28;21011;-80
2021/03/10 02:00:08;;;;;;;22.33;12.90;;;3.20;99.90;;;4.03;100.00;98316.13;5006392;28;20478;-80
2021/03/10 02:02:36;;;;;;;23.77;13.37;;;3.20;99.90;;;3.98;100.00;98322.69;5006138;28;20467;-80
2021/03/10 02:05:07;;;;;;;26.53;12.77;;;3.10;99.90;;;4.00;100.00;98323.34;5005967;28;20491;-81
2021/03/10 02:07:46;;;;;;;23.20;12.90;;;3.10;99.90;;;4.02;100.00;98329.22;5005494;28;20466;-79
2021/03/10 02:10:26;;;;;;;21.93;13.30;;;3.10;99.90;;;4.02;100.00;98330.03;5007032;28;20971;-80
2021/03/10 02:13:08;;;;;;;21.60;11.80;;;3.10;99.90;;;3.99;100.00;98327.72;5007129;28;20830;-80
2021/03/10 02:15:51;;;;;;;23.40;12.77;;;3.10;99.90;;;3.99;100.00;98330.28;5002401;28;20466;-80
2021/03/10 02:18:26;;;;;;;18.70;11.17;;;3.10;99.90;;;3.99;100.00;98330.28;5006678;28;20899;-80
2021/03/10 02:20:59;;;;;;;23.27;12.80;;;3.00;99.90;;;3.95;100.00;98321.22;5005532;28;20474;-80
2021/03/10 02:23:55;;;;;;;24.97;13.93;;;3.10;99.90;;;3.95;100.00;98317.78;5007195;28;20995;-80
2021/03/10 02:26:44;;;;;;;25.43;13.23;;;3.10;99.90;;;3.92;100.00;98324.03;5006252;28;20475;-80
2021/03/10 02:29:16;;;;;;;23.23;13.10;;;3.10;99.90;;;3.81;100.00;98325.97;5006600;28;20533;-80
2021/03/10 02:31:50;;;;;;;20.73;11.83;;;2.90;99.90;;;3.81;100.00;98331.16;5006184;28;20463;-80
2021/03/10 02:34:19;;;;;;;22.67;13.37;;;2.90;99.90;;;3.84;100.00;98336.88;5007220;28;20475;-80
2021/03/10 02:37:00;;;;;;;20.40;11.70;;;2.90;99.90;;;3.84;100.00;98329.09;5005227;28;20463;-80
2021/03/10 02:39:30;;;;;;;21.43;12.97;;;2.90;99.90;;;3.90;100.00;98335.50;5006877;28;20471;-80
2021/03/10 02:41:58;;;;;;;24.90;13.80;;;3.00;99.90;;;3.88;100.00;98338.22;5006950;28;20462;-80
2021/03/10 02:44:28;;;;;;;17.57;12.13;;;3.10;99.90;;;3.88;100.00;98333.06;5005027;28;20498;-80
2021/03/10 02:46:57;;;;;;;18.23;10.60;;;3.10;99.90;;;3.88;100.00;98333.06;5006445;28;20490;-80
2021/03/10 02:49:26;;;;;;;23.93;12.87;;;3.00;99.90;;;3.94;100.00;98331.69;5007877;28;20811;-80
2021/03/10 02:51:56;;;;;;;22.57;12.40;;;3.10;99.90;;;3.94;100.00;98329.09;5005694;28;20506;-80
2021/03/10 02:54:25;;;;;;;26.50;13.27;;;3.10;99.90;;;3.97;100.00;98328.81;5005702;28;20470;-80
2021/03/10 02:56:53;;;;;;;26.60;12.33;;;3.20;99.90;;;4.01;100.00;98330.16;5004223;28;20486;-80
2021/03/10 02:59:21;;;;;;;19.27;11.40;;;3.20;99.90;;;3.97;100.00;98326.22;5006434;28;20509;-80
2021/03/10 03:01:50;;;;;;;18.47;11.13;;;3.20;99.90;;;3.92;100.00;98328.44;5005269;28;20471;-80
2021/03/10 03:04:18;;;;;;;22.03;12.00;;;3.10;99.90;;;3.93;100.00;98325.69;5005075;28;20894;-80
2021/03/10 03:06:45;;;;;;;21.90;11.27;;;3.10;99.90;;;3.94;100.00;98322.16;5005891;28;20471;-80
2021/03/10 03:09:14;;;;;;;22.87;12.63;;;3.10;99.90;;;3.88;100.00;98327.06;5004238;28;20463;-80
2021/03/10 03:11:42;;;;;;;21.80;12.77;;;3.00;99.90;;;3.88;100.00;98322.72;5006226;28;20459;-80
2021/03/10 03:14:11;;;;;;;19.60;10.83;;;3.00;99.90;;;3.87;100.00;98325.44;5004716;28;20843;-79
2021/03/10 03:16:41;;;;;;;21.10;11.83;;;3.00;99.90;;;3.92;100.00;98326.63;5005285;28;20470;-80
2021/03/10 03:19:10;;;;;;;24.60;13.30;;;3.00;99.90;;;3.92;100.00;98324.03;5006123;28;20517;-80
2021/03/10 03:21:38;;;;;;;21.90;12.27;;;3.10;99.90;;;3.94;100.00;98323.91;5004895;28;20455;-80
2021/03/10 03:24:08;;;;;;;23.57;13.23;;;3.20;99.90;;;3.94;100.00;98326.50;5005819;28;20463;-80
2021/03/10 03:26:37;;;;;;;20.10;11.30;;;3.10;99.90;;;3.91;100.00;98327.59;5002988;28;20516;-80
2021/03/10 03:29:06;;;;;;;22.20;12.37;;;3.10;99.90;;;3.90;100.00;98338.06;5007747;28;21228;-79
2021/03/10 03:31:35;;;;;;;22.20;12.97;;;3.10;99.90;;;3.86;100.00;98332.38;5010026;28;20478;-80
2021/03/10 03:34:05;;;;;;;24.17;13.33;;;3.00;99.90;;;3.84;100.00;98333.47;5010793;28;20538;-79
2021/03/10 03:36:35;;;;;;;25.50;13.50;;;3.00;99.90;;;3.84;100.00;98346.41;5010520;28;20455;-80
2021/03/10 03:39:06;;;;;;;25.67;13.50;;;3.00;99.90;;;3.75;100.00;98344.63;5010617;28;20947;-80
2021/03/10 03:41:35;;;;;;;21.17;13.20;;;2.90;99.90;;;3.75;100.00;98342.84;5010081;28;20849;-80
2021/03/10 03:44:04;;;;;;;20.20;12.07;;;2.90;99.90;;;3.77;100.00;98345.31;5007985;28;21045;-80
2021/03/10 03:46:32;;;;;;;27.47;12.10;;;2.90;99.90;;;3.80;100.00;98339.84;5008155;28;20498;-80
2021/03/10 03:49:01;;;;;;;24.17;13.10;;;3.00;99.90;;;3.78;100.00;98346.94;5009553;28;20477;-80
2021/03/10 03:51:31;;;;;;;20.30;12.13;;;2.90;99.90;;;3.77;100.00;98340.13;5007269;28;20558;-80
2021/03/10 03:54:01;;;;;;;22.73;12.73;;;2.90;99.90;;;3.77;100.00;98337.56;5007131;28;20841;-80
2021/03/10 03:56:29;;;;;;;23.77;11.80;;;2.90;99.90;;;3.80;100.00;98335.50;5010655;28;20483;-80
2021/03/10 03:58:58;;;;;;;21.87;12.27;;;2.90;99.90;;;3.79;100.00;98338.22;5010003;28;20991;-80
2021/03/10 04:01:26;;;;;;;26.40;13.83;;;3.00;99.90;;;3.78;100.00;98340.00;5009394;28;20528;-80
2021/03/10 04:03:53;;;;;;;22.47;12.13;;;3.00;99.90;;;3.74;100.00;98340.41;5009193;28;20459;-80
2021/03/10 04:06:21;;;;;;;21.43;12.77;;;2.90;99.90;;;3.71;100.00;98340.69;5008379;28;20498;-79
2021/03/10 04:08:48;;;;;;;19.90;10.50;;;2.80;99.90;;;3.75;100.00;98342.84;5006833;28;20827;-80
2021/03/10 04:11:18;;;;;;;22.17;12.97;;;2.90;99.90;;;3.76;100.00;98343.66;5007564;28;20533;-79
2021/03/10 04:13:45;;;;;;;23.10;12.23;;;2.90;99.90;;;3.72;100.00;98348.28;5006523;28;20477;-79
2021/03/10 04:16:13;;;;;;;23.53;12.70;;;2.80;99.90;;;3.68;100.00;98335.78;5008305;28;20885;-80
2021/03/10 04:18:42;;;;;;;26.00;13.83;;;2.80;99.90;;;3.72;100.00;98334.53;5006636;28;20517;-79
2021/03/10 04:21:09;;;;;;;21.23;12.37;;;2.80;99.90;;;3.73;100.00;98343.94;5007186;28;20494;-80
2021/03/10 04:23:37;;;;;;;22.63;13.37;;;2.80;99.90;;;3.76;100.00;98341.91;5008806;28;20533;-80
2021/03/10 04:26:04;;;;;;;20.97;12.37;;;2.90;99.90;;;3.77;100.00;98333.19;5008996;28;20506;-80
2021/03/10 04:28:33;;;;;;;24.57;13.20;;;2.90;99.90;;;3.74;100.00;98338.66;5005516;28;20470;-80
2021/03/10 04:31:00;;;;;;;25.53;13.00;;;2.90;99.90;;;3.73;100.00;98336.19;5008591;28;20475;-80
2021/03/10 04:33:28;;;;;;;22.53;12.37;;;2.90;99.90;;;3.69;100.00;98340.00;5009556;28;20908;-80
2021/03/10 04:35:56;;;;;;;22.57;12.97;;;2.80;99.90;;;3.73;100.00;98349.13;5009469;28;20451;-80
2021/03/10 04:38:29;;;;;;;21.33;13.30;;;2.90;99.90;;;3.69;100.00;98351.16;5006928;28;20450;-80
2021/03/10 04:40:56;;;;;;;23.67;13.20;;;2.90;99.90;;;3.69;100.00;98347.75;5002147;28;20463;-80
2021/03/10 04:43:24;;;;;;;21.80;11.73;;;2.80;99.90;;;3.69;100.00;98348.56;5007871;28;20470;-81
2021/03/10 04:45:53;;;;;;;21.40;11.90;;;2.80;99.90;;;3.70;100.00;98352.78;5003533;28;20502;-80
2021/03/10 04:48:22;;;;;;;24.50;12.53;;;2.90;99.90;;;3.72;100.00;98352.66;5008235;28;20529;-80
2021/03/10 04:50:50;;;;;;;24.73;13.10;;;2.90;99.90;;;3.73;100.00;98349.94;5005590;28;20471;-80
2021/03/10 04:53:17;;;;;;;23.60;12.67;;;2.90;99.90;;;3.72;100.00;98345.72;5005351;28;20475;-79
2021/03/10 04:55:45;;;;;;;24.53;13.30;;;3.00;99.90;;;3.75;100.00;98342.06;5006409;28;20471;-79
2021/03/10 04:58:12;;;;;;;25.00;13.53;;;3.00;99.90;;;3.74;100.00;98350.75;5008748;28;20447;-80
2021/03/10 05:00:40;;;;;;;23.63;11.60;;;3.00;99.90;;;3.75;100.00;98347.22;5009381;28;20874;-80
2021/03/10 05:03:08;;;;;;;19.90;11.90;;;2.90;99.90;;;3.77;100.00;98347.91;5008706;28;20447;-79
2021/03/10 05:05:37;;;;;;;20.87;12.07;;;2.90;99.90;;;3.76;100.00;98343.66;5008980;28;20542;-80
2021/03/10 05:08:06;;;;;;;21.53;13.70;;;2.90;99.90;;;3.76;100.00;98346.25;5008754;28;20443;-79
2021/03/10 05:10:33;;;;;;;27.57;13.70;;;2.90;99.90;;;3.72;100.00;98348.28;5008657;28;20510;-80
2021/03/10 05:13:01;;;;;;;29.90;13.90;;;2.90;99.90;;;3.76;100.00;98349.66;5009239;28;20447;-79
2021/03/10 05:15:29;;;;;;;24.53;13.50;;;2.90;99.90;;;3.75;100.00;98342.84;5008330;28;20459;-80
2021/03/10 05:17:56;;;;;;;24.07;12.97;;;3.10;99.90;;;3.76;100.00;98343.66;5008567;28;20457;-79
2021/03/10 05:20:25;;;;;;;22.50;13.10;;;3.00;99.90;;;3.77;100.00;98350.47;5008157;28;20455;-80
2021/03/10 05:22:52;;;;;;;24.27;13.33;;;3.00;99.90;;;3.74;100.00;98350.75;5009943;28;20442;-78
2021/03/10 05:25:20;;;;;;;20.90;12.60;;;3.00;99.90;;;3.72;100.00;98350.88;5009388;28;20506;-78
2021/03/10 05:27:47;;;;;;;27.73;14.87;;;3.00;99.90;;;3.69;100.00;98358.09;5009841;28;20447;-78
2021/03/10 05:30:17;;;;;;;21.73;12.67;;;2.90;99.90;;;3.69;100.00;98348.56;5011110;28;21027;-77
2021/03/10 05:32:44;;;;;;;20.80;12.40;;;2.90;99.90;;;3.69;100.00;98358.91;5010967;28;20871;-78
2021/03/10 05:35:13;;;;;;;19.73;12.47;;;2.90;99.90;;;3.71;100.00;98364.78;5010574;28;20935;-77
2021/03/10 05:37:41;;;;;;;29.10;14.63;;;2.90;99.90;;;3.65;100.00;98361.91;5010370;28;20478;-77
2021/03/10 05:40:10;;;;;;;22.50;13.07;;;2.80;99.90;;;3.59;100.00;98367.63;5010377;28;20469;-77
2021/03/10 05:42:42;;;;;;;27.70;13.57;;;2.70;99.90;;;3.58;100.00;98368.56;5010333;28;20449;-77
2021/03/10 05:45:12;;;;;;;26.87;13.50;;;2.60;99.90;;;3.54;100.00;98368.84;5009625;28;20495;-77
2021/03/10 05:47:40;;;;;;;22.20;12.37;;;2.60;99.90;;;3.59;100.00;98370.19;5010280;28;20526;-77
2021/03/10 05:50:10;;;;;;;21.90;12.90;;;2.70;99.90;;;3.60;100.00;98364.09;5009609;28;20454;-77
2021/03/10 05:52:42;;;;;;;25.53;13.80;;;2.70;99.90;;;3.63;100.00;98364.63;5010087;28;20470;-77
2021/03/10 05:55:13;;;;;;;25.70;14.67;;;2.70;99.90;;;3.59;100.00;98371.03;5010334;28;20461;-77
2021/03/10 05:57:41;;;;;;;23.80;13.00;;;2.70;99.90;;;3.61;100.00;98370.91;5009803;28;20490;-77
2021/03/10 06:00:14;;;;;;;24.30;13.67;;;2.80;99.90;;;3.59;100.00;98372.78;5010140;28;20458;-77
2021/03/10 06:02:41;;;;;;;25.53;13.70;;;2.70;99.90;;;3.58;100.00;98371.16;5010406;28;20478;-77
2021/03/10 06:05:19;;;;;;;25.43;14.13;;;2.60;99.90;;;3.55;100.00;98372.25;5010150;28;20551;-77
2021/03/10 06:07:58;;;;;;;28.57;13.93;;;2.60;99.90;;;3.60;100.00;98370.09;5009928;28;20862;-77
2021/03/10 06:10:38;;;;;;;27.93;13.67;;;2.70;99.90;;;3.62;100.00;98372.50;5010052;28;20451;-77
2021/03/10 06:13:17;;;;;;;26.50;13.00;;;2.70;99.90;;;3.63;100.00;98368.97;5009626;28;20447;-76
2021/03/10 06:15:45;;;;;;;27.93;15.43;;;2.70;99.90;;;3.61;100.00;98366.53;5009713;28;20466;-77
2021/03/10 06:18:26;;;;;;;23.03;13.93;;;2.70;99.90;;;3.60;100.00;98377.84;5009651;28;20863;-77
2021/03/10 06:21:06;;;;;;;26.07;14.20;;;2.70;99.90;;;3.66;100.00;98379.06;5009905;28;20447;-77
2021/03/10 06:23:34;;;;;;;25.77;13.20;;;2.90;99.90;;;3.68;100.00;98377.97;5009610;28;20451;-77
2021/03/10 06:26:03;;;;;;;27.97;14.43;;;2.90;99.90;;;3.74;100.00;98390.38;5009851;28;20499;-77
2021/03/10 06:28:36;;;;;;;27.23;14.70;;;2.90;99.90;;;3.77;100.00;98387.50;5009853;28;20471;-77
2021/03/10 06:31:15;;;;;;;28.70;14.63;;;3.00;99.90;;;3.78;100.00;98389.16;5009364;28;20470;-76
2021/03/10 06:33:43;;;;;;;36.07;15.57;;;2.90;99.90;;;3.81;100.00;98404.38;5009682;28;20462;-77
2021/03/10 06:36:11;;;;;;;26.67;14.20;;;3.00;99.90;;;3.81;100.00;98400.97;5009376;28;20475;-77
2021/03/10 06:38:49;;;;;;;43.37;23.10;;;3.00;99.90;;;3.83;100.00;98397.28;5009792;28;20948;-77
2021/03/10 06:41:31;;;;;;;27.07;14.43;;;3.00;99.90;;;3.84;100.00;98408.47;5009054;28;20990;-77
2021/03/10 06:44:00;;;;;;;31.23;14.67;;;3.00;99.90;;;3.85;100.00;98421.25;5009696;28;20447;-77
2021/03/10 06:46:28;;;;;;;26.83;15.13;;;3.00;99.90;;;3.86;100.00;98416.88;5009651;28;20601;-77
2021/03/10 06:49:01;;;;;;;29.03;14.10;;;3.00;99.90;;;3.91;100.00;98409.56;5009297;28;21149;-77
2021/03/10 06:51:31;;;;;;;28.23;13.80;;;3.00;99.90;;;3.92;100.00;98403.44;5009214;28;20882;-77
2021/03/10 06:53:59;;;;;;;25.77;14.17;;;3.10;99.90;;;3.98;100.00;98414.06;5009124;28;20447;-77
2021/03/10 06:56:30;;;;;;;25.10;14.50;;;3.10;99.90;;;3.99;100.00;98413.06;5009126;28;20847;-77
2021/03/10 06:59:04;;;;;;;26.77;13.60;;;3.10;99.90;;;4.01;100.00;98413.78;5009166;28;20457;-77
2021/03/10 07:01:40;;;;;;;26.70;14.80;;;3.20;99.90;;;4.02;100.00;98412.00;5012443;28;20807;-77
2021/03/10 07:04:11;;;;;;;26.60;14.50;;;3.20;99.90;;;4.02;100.00;98417.19;5012734;28;20509;-77
2021/03/10 07:06:40;;;;;;;31.40;15.17;;;3.20;99.90;;;4.05;100.00;98422.91;5013235;28;20503;-77
2021/03/10 07:09:13;;;;;;;30.13;15.53;;;3.20;99.90;;;4.09;100.00;98418.28;5012201;28;20455;-77
2021/03/10 07:11:42;;;;;;;26.50;14.47;;;3.20;99.90;;;4.13;100.00;98426.56;5013031;28;20470;-77
2021/03/10 07:14:12;;;;;;;33.33;15.83;;;3.30;99.90;;;4.16;100.00;98431.47;5012974;28;20508;-77
2021/03/10 07:16:40;;;;;;;34.40;15.47;;;3.40;99.90;;;4.21;100.00;98432.69;5013533;28;20466;-77
2021/03/10 07:19:10;;;;;;;30.27;15.53;;;3.40;99.90;;;4.25;100.00;98435.81;5013431;28;20453;-77
2021/03/10 07:21:46;;;;;;;30.13;16.13;;;3.40;99.90;;;4.29;100.00;98435.41;5012934;28;20458;-77
2021/03/10 07:24:20;;;;;;;28.37;17.03;;;3.50;99.90;;;4.35;100.00;98434.84;5013210;28;20955;-77
2021/03/10 07:26:51;;;;;;;29.17;16.03;;;3.70;99.90;;;4.38;100.00;98438.94;5012658;28;20502;-77
2021/03/10 07:29:20;;;;;;;32.90;17.37;;;3.70;99.90;;;4.41;100.00;98439.47;5012701;28;20450;-77
2021/03/10 07:31:59;;;;;;;33.70;17.90;;;3.70;99.90;;;4.45;100.00;98440.00;5012992;28;20439;-77
2021/03/10 07:34:29;;;;;;;34.67;17.67;;;3.70;99.90;;;4.47;100.00;98438.13;5012282;28;20450;-77
2021/03/10 07:36:57;;;;;;;30.47;17.17;;;3.80;99.90;;;4.49;100.00;98447.38;5013216;28;20459;-77
2021/03/10 07:39:29;;;;;;;30.83;16.87;;;3.70;99.90;;;4.55;100.00;98446.00;5012144;28;20455;-77
2021/03/10 07:42:09;;;;;;;33.77;17.27;;;3.80;99.90;;;4.58;100.00;98443.94;5013142;28;20466;-77
2021/03/10 07:44:37;;;;;;;31.10;17.70;;;3.80;99.90;;;4.65;100.00;98440.81;5012020;28;20459;-77
2021/03/10 07:47:09;;;;;;;32.90;18.10;;;3.90;99.90;;;4.68;100.00;98441.34;5012450;28;20576;-77
2021/03/10 07:49:38;;;;;;;30.87;17.17;;;4.00;99.90;;;4.73;100.00;98443.50;5012218;28;20451;-77
2021/03/10 07:52:08;;;;;;;29.30;17.20;;;4.10;99.90;;;4.78;100.00;98444.72;5012630;28;20447;-77
2021/03/10 07:54:38;;;;;;;29.87;16.67;;;4.20;99.90;;;4.79;100.00;98438.56;5012943;28;20459;-77
2021/03/10 07:57:10;;;;;;;36.70;18.00;;;4.30;99.90;;;4.82;100.00;98446.09;5012460;28;20911;-77
2021/03/10 07:59:40;;;;;;;32.90;17.87;;;4.30;99.90;;;4.81;100.00;98452.22;5012679;28;20470;-77
2021/03/10 08:02:09;;;;;;;39.10;17.80;;;4.20;99.90;;;4.86;100.00;98446.63;5012021;28;20455;-77
2021/03/10 08:04:40;;;;;;;36.83;19.23;;;4.20;99.90;;;4.90;100.00;98441.00;5012914;28;20928;-77
2021/03/10 08:07:08;;;;;;;33.77;17.60;;;4.20;99.90;;;4.97;100.00;98443.84;5011877;28;20588;-77
2021/03/10 08:09:35;;;;;;;35.10;19.30;;;4.40;99.90;;;4.91;100.00;98447.00;5012588;28;20467;-77
2021/03/10 08:12:08;;;;;;;39.23;20.87;;;4.20;99.90;;;4.90;100.00;98445.34;5011534;28;21009;-77
2021/03/10 08:14:39;;;;;;;33.93;18.97;;;4.20;99.90;;;4.93;100.00;98448.47;5012462;28;20463;-77
2021/03/10 08:17:09;;;;;;;34.67;19.73;;;4.20;99.90;;;4.98;100.00;98453.25;5011990;28;20459;-77
2021/03/10 08:19:37;;;;;;;37.50;19.10;;;4.30;99.90;;;4.96;100.00;98450.00;5012327;28;20975;-77
2021/03/10 08:22:06;;;;;;;38.07;20.37;;;4.20;99.90;;;5.01;100.00;98452.97;5012382;28;20475;-77
2021/03/10 08:24:35;;;;;;;43.90;21.10;;;4.30;99.90;;;5.06;100.00;98461.13;5011917;28;20451;-77
2021/03/10 08:27:05;;;;;;;40.10;21.13;;;4.30;99.90;;;5.06;100.00;98453.38;5012103;28;21053;-77
2021/03/10 08:29:34;;;;;;;41.90;22.97;;;4.30;99.90;;;5.11;100.00;98445.97;5012179;28;20463;-77
2021/03/10 08:32:02;;;;;;;41.97;23.20;;;4.40;99.90;;;5.12;100.00;98447.59;5011924;28;20823;-77
2021/03/10 08:34:36;;;;;;;45.67;24.00;;;4.40;99.90;;;5.15;100.00;98455.09;5011779;28;20447;-77
2021/03/10 08:37:08;;;;;;;44.13;23.27;;;4.40;99.90;;;5.19;100.00;98451.25;5012132;28;20467;-77
2021/03/10 08:39:42;;;;;;;47.53;25.70;;;4.50;99.90;;;5.28;100.00;98445.19;5011898;28;20443;-77
2021/03/10 08:42:11;;;;;;;44.87;22.43;;;4.50;99.90;;;5.32;100.00;98448.31;5011520;28;20450;-77
2021/03/10 08:44:42;;;;;;;39.67;23.13;;;4.50;99.90;;;5.31;100.00;98437.13;5012109;28;21003;-77
2021/03/10 08:47:15;;;;;;;45.50;24.03;;;4.60;99.90;;;5.37;100.00;98441.75;5011652;28;20507;-76
2021/03/10 08:49:45;;;;;;;40.90;23.07;;;4.70;99.90;;;5.47;100.00;98441.69;5011575;28;20974;-77
2021/03/10 08:52:16;;;;;;;43.43;24.17;;;4.80;99.90;;;5.47;100.00;98439.94;5010545;28;20549;-77
2021/03/10 08:54:53;;;;;;;48.77;23.63;;;4.80;99.90;;;5.53;100.00;98446.31;5011660;28;20451;-77
2021/03/10 08:57:24;;;;;;;47.63;24.00;;;4.80;99.90;;;5.57;100.00;98445.06;5011140;28;20522;-77
2021/03/10 08:59:53;;;;;;;51.77;26.10;;;4.90;99.90;;;5.61;100.00;98445.59;5011540;28;20458;-77
2021/03/10 09:02:28;;;;;;;45.10;24.27;;;5.00;99.90;;;5.65;100.00;98452.13;5011104;28;20447;-77
2021/03/10 09:04:57;;;;;;;43.37;23.73;;;4.90;99.90;;;5.62;100.00;98450.63;5011526;28;20454;-77
2021/03/10 09:07:26;;;;;;;45.40;25.90;;;4.90;99.90;;;5.64;100.00;98453.06;5011297;28;20865;-77
2021/03/10 09:09:56;;;;;;;52.03;23.97;;;4.90;99.90;;;5.67;100.00;98450.19;5011554;28;20814;-77
2021/03/10 09:12:26;;;;;;;54.40;25.43;;;5.00;99.90;;;5.69;100.00;98450.88;5011100;28;20488;-77
2021/03/10 09:14:56;;;;;;;44.13;23.33;;;5.00;99.90;;;5.69;100.00;98446.50;5010581;28;20883;-77
2021/03/10 09:17:31;;;;;;;48.00;24.97;;;5.00;99.90;;;5.68;100.00;98444.03;5010849;28;20451;-77
2021/03/10 09:20:02;;;;;;;49.57;27.17;;;4.90;99.90;;;5.71;100.00;98448.94;5010918;28;20457;-77
2021/03/10 09:22:30;;;;;;;49.20;25.73;;;4.90;99.90;;;5.74;100.00;98453.81;5010775;28;20458;-77
2021/03/10 09:25:10;;;;;;;46.60;24.73;;;5.00;99.90;;;5.80;100.00;98440.25;5009491;28;20485;-77
2021/03/10 09:27:38;;;;;;;44.53;22.93;;;5.10;99.90;;;5.84;100.00;98437.22;5010634;28;20473;-77
2021/03/10 09:30:13;;;;;;;52.07;26.23;;;5.10;99.90;;;5.89;100.00;98434.22;5010521;28;20855;-77
2021/03/10 09:32:44;;;;;;;50.43;25.33;;;5.20;99.90;;;5.94;100.00;98432.00;5010821;28;20517;-77
2021/03/10 09:35:16;;;;;;;49.40;23.70;;;5.20;99.90;;;5.98;100.00;98423.78;5010730;28;20829;-77
2021/03/10 09:37:51;;;;;;;53.57;27.30;;;5.30;99.90;;;6.04;100.00;98422.34;5010472;28;20466;-77
2021/03/10 09:40:23;;;;;;;47.33;24.50;;;5.30;99.90;;;6.09;100.00;98422.72;5010597;28;20504;-77
2021/03/10 09:42:59;;;;;;;59.47;28.30;;;5.30;99.90;;;6.16;100.00;98425.53;5010313;28;20447;-77
2021/03/10 09:45:32;;;;;;;53.33;27.03;;;5.50;99.90;;;6.23;100.00;98417.00;5010522;28;20981;-77
2021/03/10 09:48:08;;;;;;;47.50;25.90;;;5.60;99.90;;;6.32;100.00;98417.88;5010869;28;20458;-77
2021/03/10 09:50:40;;;;;;;48.90;26.40;;;5.80;99.90;;;6.36;100.00;98421.78;5010263;28;20454;-77
2021/03/10 09:53:19;;;;;;;54.93;26.77;;;5.80;99.90;;;6.43;100.00;98413.25;5010518;28;20530;-77
2021/03/10 09:55:47;;;;;;;51.07;27.30;;;5.80;99.90;;;6.48;100.00;98408.44;5009889;28;20967;-77
2021/03/10 09:58:19;;;;;;;70.10;29.43;;;5.90;99.90;;;6.56;100.00;98412.84;5010280;28;20447;-77
2021/03/10 10:01:00;;;;;;;50.57;27.63;;;6.00;99.90;;;6.63;100.00;98403.47;5010022;28;20444;-77
2021/03/10 10:03:28;;;;;;;58.03;27.77;;;6.10;99.90;;;6.67;100.00;98403.97;5009990;28;20450;-77
2021/03/10 10:06:06;;;;;;;55.23;27.70;;;6.20;99.90;;;6.71;100.00;98406.13;5010462;28;20568;-77
2021/03/10 10:08:35;;;;;;;58.43;28.63;;;6.20;99.90;;;6.75;100.00;98396.25;5009950;28;20530;-77
2021/03/10 10:11:03;;;;;;;49.83;27.53;;;6.20;99.90;;;6.77;100.00;98399.53;5009886;28;20805;-77
2021/03/10 10:13:51;;;;;;;50.10;25.60;;;6.30;99.90;;;6.81;100.00;98400.81;5010159;28;21892;-77
2021/03/10 10:16:23;;;;;;;55.50;28.13;;;6.30;99.90;;;6.83;100.00;98393.69;5009655;28;20810;-77
2021/03/10 10:18:51;;;;;;;55.43;26.90;;;6.30;99.90;;;6.84;100.00;98400.50;5009890;28;20459;-77
2021/03/10 10:21:19;;;;;;;55.80;26.23;;;6.20;99.90;;;6.87;100.00;98400.22;5009732;28;20475;-77
2021/03/10 10:23:47;;;;;;;66.80;30.00;;;6.20;99.90;;;6.88;100.00;98394.84;5010487;28;21236;-77
2021/03/10 10:26:15;;;;;;;54.83;28.50;;;6.20;99.90;;;6.95;100.00;98397.63;5009863;28;20506;-77